Time;durP1;ratioP1;P1;durP2;ratioP2;P2;SDS_P1;SDS_P2;PMS_P1;PMS_P2;Temp;Humidity;BMP_temperature;BMP_pressure;BME280_temperature;BME280_humidity;BME280_pressure;Samples;Min_cycle;Max_cycle;Signal;HPM_P1;HPM_P2
2024/03/20 00:01:28;;;;;;;23.02;19.45;;;10.30;99.90;;;;;;5032022;28;20236;-76
2024/03/20 00:03:55;;;;;;;20.55;17.83;;;10.30;99.90;;;;;;5040719;28;20250;-76
2024/03/20 00:06:23;;;;;;;22.13;19.75;;;10.20;99.90;;;;;;5021082;28;20257;-77
2024/03/20 00:08:51;;;;;;;22.30;18.50;;;10.20;99.90;;;;;;5039935;28;20198;-77
2024/03/20 00:11:20;;;;;;;24.27;20.77;;;10.20;99.90;;;;;;5044843;28;20246;-78
2024/03/20 00:13:47;;;;;;;30.88;24.48;;;10.20;99.90;;;;;;5028932;28;20221;-78
2024/03/20 00:16:17;;;;;;;35.85;28.27;;;10.10;99.90;;;;;;5048901;28;20250;-76
2024/03/20 00:18:44;;;;;;;28.05;23.33;;;10.20;99.90;;;;;;5046294;28;20286;-75
2024/03/20 00:21:12;;;;;;;25.88;21.42;;;10.20;99.90;;;;;;5031587;28;20301;-75
2024/03/20 00:23:38;;;;;;;24.92;19.75;;;10.20;99.90;;;;;;5050787;28;20313;-80
2024/03/20 00:26:07;;;;;;;28.38;22.85;;;10.20;99.90;;;;;;5045893;28;20704;-76
2024/03/20 00:28:34;;;;;;;27.33;22.08;;;10.20;99.90;;;;;;5043964;28;20226;-77
2024/03/20 00:31:03;;;;;;;27.05;22.20;;;10.20;99.90;;;;;;5026170;28;20223;-77
2024/03/20 00:33:30;;;;;;;23.13;20.63;;;10.20;99.90;;;;;;5048686;28;20637;-78
2024/03/20 00:39:19;;;;;;;20.92;18.05;;;10.20;99.90;;;;;;5042161;28;20229;-79
2024/03/20 00:41:48;;;;;;;22.38;19.02;;;10.30;99.90;;;;;;5044985;28;20245;-78
2024/03/20 00:44:15;;;;;;;25.08;20.17;;;10.40;99.90;;;;;;5051129;28;20620;-78
2024/03/20 00:46:43;;;;;;;29.70;23.48;;;10.30;99.90;;;;;;5045414;28;20226;-81
2024/03/20 00:49:11;;;;;;;22.02;18.83;;;10.40;99.90;;;;;;5040359;28;20300;-80
2024/03/20 00:51:38;;;;;;;22.13;19.00;;;10.40;99.90;;;;;;5041082;28;21199;-79
2024/03/20 00:54:05;;;;;;;20.08;17.65;;;10.40;99.90;;;;;;5030905;28;20209;-78
2024/03/20 00:56:32;;;;;;;22.45;18.52;;;10.50;99.90;;;;;;5026430;28;20233;-78
2024/03/20 00:59:02;;;;;;;20.13;17.30;;;10.50;99.90;;;;;;5030509;28;20222;-80
2024/03/20 01:01:29;;;;;;;19.52;16.48;;;10.60;99.90;;;;;;5027100;28;20710;-77
2024/03/20 01:03:56;;;;;;;17.33;14.85;;;10.60;99.90;;;;;;5040025;28;20215;-76
2024/03/20 01:06:23;;;;;;;19.58;15.95;;;10.60;99.90;;;;;;5040018;28;20222;-78
2024/03/20 01:08:50;;;;;;;19.10;16.30;;;10.70;99.90;;;;;;5047773;28;20202;-80
2024/03/20 01:11:19;;;;;;;21.10;18.27;;;10.70;99.90;;;;;;5045859;28;20337;-76
2024/03/20 01:13:46;;;;;;;18.77;16.13;;;10.70;99.90;;;;;;5043230;28;20222;-78
2024/03/20 01:16:14;;;;;;;18.65;16.48;;;10.70;99.90;;;;;;5043355;28;20242;-76
2024/03/20 01:18:41;;;;;;;19.88;16.30;;;10.70;99.90;;;;;;5048115;28;20373;-78
2024/03/20 01:21:08;;;;;;;18.70;15.90;;;10.70;99.90;;;;;;5047670;28;20379;-77
2024/03/20 01:23:36;;;;;;;18.05;16.15;;;10.80;99.90;;;;;;5029465;28;20293;-77
2024/03/20 01:26:04;;;;;;;18.23;16.13;;;10.80;99.90;;;;;;5044113;28;20238;-77
2024/03/20 01:28:31;;;;;;;18.05;15.13;;;10.80;99.90;;;;;;5044257;28;20252;-76
2024/03/20 01:30:58;;;;;;;15.98;14.02;;;10.80;99.90;;;;;;5045695;28;20364;-80
2024/03/20 01:33:26;;;;;;;17.13;14.63;;;10.90;99.90;;;;;;5043688;28;20247;-76
2024/03/20 01:35:53;;;;;;;17.60;15.13;;;10.80;99.90;;;;;;5044193;28;20719;-76
2024/03/20 01:38:20;;;;;;;14.95;13.40;;;10.90;99.90;;;;;;5034403;28;20929;-79
2024/03/20 01:40:47;;;;;;;16.77;14.90;;;10.90;99.90;;;;;;5049205;28;20249;-79
2024/03/20 01:43:21;;;;;;;18.77;16.15;;;10.90;99.90;;;;;;5047936;28;20246;-78
2024/03/20 01:45:48;;;;;;;18.30;15.02;;;10.80;99.90;;;;;;5048653;28;20931;-81
2024/03/20 01:48:15;;;;;;;15.45;13.60;;;10.80;99.90;;;;;;5034887;28;20226;-78
2024/03/20 01:50:45;;;;;;;16.77;14.48;;;10.80;99.90;;;;;;5050917;28;20222;-76
2024/03/20 01:53:14;;;;;;;16.38;14.07;;;10.80;99.90;;;;;;5050049;28;20305;-78
2024/03/20 01:55:42;;;;;;;18.60;16.33;;;10.80;99.90;;;;;;5049081;28;20836;-77
2024/03/20 01:58:09;;;;;;;18.48;16.25;;;10.80;99.90;;;;;;5030551;28;20858;-80
2024/03/20 02:00:36;;;;;;;15.60;14.00;;;10.80;99.90;;;;;;5044328;28;20226;-79
2024/03/20 02:03:05;;;;;;;17.98;14.93;;;10.80;99.90;;;;;;5026199;28;20802;-75
2024/03/20 02:05:32;;;;;;;15.15;13.45;;;10.80;99.90;;;;;;5043240;28;20222;-75
2024/03/20 02:08:01;;;;;;;15.40;13.75;;;10.70;99.90;;;;;;5052279;28;20300;-78
2024/03/20 02:10:29;;;;;;;14.80;13.20;;;10.70;99.90;;;;;;5051322;28;20272;-78
2024/03/20 02:13:03;;;;;;;17.30;15.35;;;10.70;99.90;;;;;;5048232;28;20214;-77
2024/03/20 02:15:34;;;;;;;16.08;14.35;;;10.70;99.90;;;;;;5050595;28;20225;-77
2024/03/20 02:18:01;;;;;;;18.50;15.70;;;10.70;99.90;;;;;;5047741;28;20223;-77
2024/03/20 02:20:28;;;;;;;16.90;14.52;;;10.70;99.90;;;;;;5045118;28;20229;-78
2024/03/20 02:22:59;;;;;;;16.27;14.25;;;10.70;99.90;;;;;;5044327;28;20274;-76
2024/03/20 02:25:28;;;;;;;18.00;15.05;;;10.70;99.90;;;;;;5027405;28;20880;-77
2024/03/20 02:27:56;;;;;;;19.17;16.73;;;10.60;99.90;;;;;;5032629;28;20211;-77
2024/03/20 02:30:23;;;;;;;19.67;16.83;;;10.60;99.90;;;;;;5039723;28;20250;-79
2024/03/20 02:32:50;;;;;;;22.83;18.42;;;10.60;99.90;;;;;;5019752;28;20250;-75
2024/03/20 02:35:18;;;;;;;21.88;17.95;;;10.60;99.90;;;;;;5047316;28;20316;-77
2024/03/20 02:37:45;;;;;;;20.08;16.50;;;10.60;99.90;;;;;;5045003;28;20328;-75
2024/03/20 02:40:14;;;;;;;19.33;15.52;;;10.60;99.90;;;;;;5046347;28;20317;-76
2024/03/20 02:42:42;;;;;;;16.67;14.68;;;10.70;99.90;;;;;;5036162;28;20315;-80
2024/03/20 02:45:10;;;;;;;19.75;15.95;;;10.70;99.90;;;;;;5046189;28;20198;-76
2024/03/20 02:47:37;;;;;;;18.20;15.27;;;10.70;99.90;;;;;;5047095;28;20233;-79
2024/03/20 02:50:04;;;;;;;16.83;15.02;;;10.70;99.90;;;;;;5046879;28;20250;-76
2024/03/20 02:52:31;;;;;;;17.92;15.05;;;10.70;99.90;;;;;;5041330;28;20361;-77
2024/03/20 02:54:58;;;;;;;16.40;13.98;;;10.80;99.90;;;;;;5045613;28;20245;-76
2024/03/20 02:57:27;;;;;;;16.40;13.95;;;10.70;99.90;;;;;;5044698;28;20248;-78
2024/03/20 02:59:54;;;;;;;16.27;14.00;;;10.70;99.90;;;;;;5044239;28;20230;-77
2024/03/20 03:02:22;;;;;;;16.05;13.68;;;10.60;99.90;;;;;;5040613;28;21202;-76
2024/03/20 03:04:50;;;;;;;13.75;12.35;;;10.60;99.90;;;;;;5044537;28;20318;-76
2024/03/20 03:07:18;;;;;;;13.55;11.95;;;10.50;99.90;;;;;;5026668;28;20284;-77
2024/03/20 03:09:45;;;;;;;13.63;12.02;;;10.50;99.90;;;;;;5050034;28;20310;-77
2024/03/20 03:12:12;;;;;;;13.82;11.70;;;10.50;99.90;;;;;;5043394;28;20296;-77
2024/03/20 03:14:43;;;;;;;13.63;12.13;;;10.50;99.90;;;;;;5050464;28;20202;-81
2024/03/20 03:17:10;;;;;;;14.55;13.05;;;10.50;99.90;;;;;;5024809;28;20222;-78
2024/03/20 03:19:37;;;;;;;15.15;12.90;;;10.50;99.90;;;;;;5029698;28;20235;-80
2024/03/20 03:22:04;;;;;;;15.93;13.40;;;10.50;99.90;;;;;;5032965;28;20222;-79
2024/03/20 03:24:31;;;;;;;13.60;12.15;;;10.50;99.90;;;;;;5045517;28;21236;-76
2024/03/20 03:26:59;;;;;;;15.40;13.70;;;10.50;99.90;;;;;;5042828;28;20304;-76
2024/03/20 03:29:26;;;;;;;18.23;14.73;;;10.50;99.90;;;;;;5041562;28;20300;-78
2024/03/20 03:31:57;;;;;;;16.35;14.63;;;10.40;99.90;;;;;;5036412;28;20251;-79
2024/03/20 03:34:25;;;;;;;14.55;13.05;;;10.40;99.90;;;;;;5022287;28;20293;-75
2024/03/20 03:36:53;;;;;;;13.73;11.85;;;10.40;99.90;;;;;;5052380;28;20228;-77
2024/03/20 03:39:20;;;;;;;12.30;11.07;;;10.40;99.90;;;;;;5020414;28;20227;-80
2024/03/20 03:41:47;;;;;;;13.02;11.63;;;10.40;99.90;;;;;;5049023;28;20278;-77
2024/03/20 03:44:14;;;;;;;12.05;10.80;;;10.50;99.90;;;;;;5051840;28;20250;-79
2024/03/20 03:46:41;;;;;;;12.05;10.75;;;10.50;99.90;;;;;;5030242;28;20245;-75
2024/03/20 03:49:12;;;;;;;12.75;9.98;;;10.40;99.90;;;;;;5051291;28;20250;-76
2024/03/20 03:51:39;;;;;;;12.18;10.88;;;10.40;99.90;;;;;;5049219;28;20305;-76
2024/03/20 03:54:06;;;;;;;11.25;9.27;;;10.40;99.90;;;;;;5026774;28;20262;-78
2024/03/20 03:56:33;;;;;;;10.25;9.23;;;10.40;99.90;;;;;;5050908;28;20250;-75
2024/03/20 03:59:02;;;;;;;11.15;9.95;;;10.40;99.90;;;;;;5025584;28;20216;-76
2024/03/20 04:01:29;;;;;;;11.32;10.13;;;10.30;99.90;;;;;;5025919;28;20238;-77
2024/03/20 04:03:56;;;;;;;11.40;10.30;;;10.30;99.90;;;;;;5048066;28;20311;-78
2024/03/20 04:06:25;;;;;;;12.00;10.75;;;10.30;99.90;;;;;;5015273;28;20703;-77
2024/03/20 04:08:52;;;;;;;10.95;9.88;;;10.30;99.90;;;;;;5053831;28;20198;-75
2024/03/20 04:11:23;;;;;;;11.00;9.60;;;10.30;99.90;;;;;;5045546;28;20230;-78
2024/03/20 04:13:51;;;;;;;9.90;8.90;;;10.40;99.90;;;;;;5046656;28;20221;-77
2024/03/20 04:16:19;;;;;;;10.13;9.07;;;10.40;99.90;;;;;;5048247;28;20226;-77
2024/03/20 04:18:47;;;;;;;10.35;9.20;;;10.30;99.90;;;;;;5049028;28;20242;-79
2024/03/20 04:21:14;;;;;;;9.02;8.05;;;10.30;99.90;;;;;;5046365;28;20254;-76
2024/03/20 04:23:42;;;;;;;8.98;8.10;;;10.20;99.90;;;;;;5027804;28;21026;-78
2024/03/20 04:26:10;;;;;;;8.75;7.60;;;10.20;99.90;;;;;;5048259;28;20226;-76
2024/03/20 04:28:39;;;;;;;8.80;7.90;;;10.10;99.90;;;;;;5040289;28;20219;-75
2024/03/20 04:31:06;;;;;;;8.45;7.63;;;10.10;99.90;;;;;;5022817;28;20226;-77
2024/03/20 04:33:33;;;;;;;8.55;7.65;;;10.10;99.90;;;;;;5027756;28;20246;-73
2024/03/20 04:36:05;;;;;;;7.90;7.10;;;10.00;99.90;;;;;;5024472;28;20838;-76
2024/03/20 04:38:34;;;;;;;7.80;7.00;;;10.10;99.90;;;;;;5029713;28;20301;-74
2024/03/20 04:41:04;;;;;;;7.25;6.57;;;10.10;99.90;;;;;;5042030;28;20226;-75
2024/03/20 04:43:31;;;;;;;7.53;6.82;;;10.20;99.90;;;;;;5028155;28;20218;-76
2024/03/20 04:45:58;;;;;;;6.68;6.00;;;10.20;99.90;;;;;;5028589;28;20226;-78
2024/03/20 04:48:26;;;;;;;8.10;7.30;;;10.20;99.90;;;;;;5010433;28;20215;-75
2024/03/20 04:50:53;;;;;;;8.02;7.22;;;10.20;99.90;;;;;;5043335;28;20291;-76
2024/03/20 04:53:20;;;;;;;8.75;7.82;;;10.20;99.90;;;;;;5044917;28;20215;-77
2024/03/20 04:55:47;;;;;;;6.97;6.28;;;10.20;99.90;;;;;;5023370;28;20227;-74
2024/03/20 04:58:16;;;;;;;7.72;6.97;;;10.20;99.90;;;;;;5042180;28;20221;-74
2024/03/20 05:00:43;;;;;;;9.10;8.20;;;10.20;99.90;;;;;;5046425;28;20254;-76
2024/03/20 05:03:10;;;;;;;8.55;7.63;;;10.10;99.90;;;;;;5030526;28;20220;-75
2024/03/20 05:05:38;;;;;;;7.55;6.85;;;10.00;99.90;;;;;;5052741;28;20230;-75
2024/03/20 05:08:05;;;;;;;7.70;6.70;;;10.00;99.90;;;;;;5053280;28;20225;-75
2024/03/20 05:10:33;;;;;;;7.43;6.75;;;10.00;99.90;;;;;;5048833;28;20508;-77
2024/03/20 05:13:00;;;;;;;6.82;6.15;;;10.00;99.90;;;;;;5036305;28;20217;-76
2024/03/20 05:15:29;;;;;;;6.13;5.57;;;9.90;99.90;;;;;;5047922;28;20312;-77
2024/03/20 05:17:56;;;;;;;6.85;6.07;;;9.80;99.90;;;;;;5049448;28;20218;-75
2024/03/20 05:20:23;;;;;;;5.70;5.20;;;9.80;99.90;;;;;;5052599;28;20297;-76
2024/03/20 05:22:49;;;;;;;5.78;5.28;;;9.80;99.90;;;;;;5048549;28;20244;-76
2024/03/20 05:25:16;;;;;;;6.68;6.07;;;9.80;99.90;;;;;;5049759;28;20250;-76
2024/03/20 05:27:43;;;;;;;7.70;6.90;;;9.90;99.90;;;;;;5026753;28;20241;-76
2024/03/20 05:30:11;;;;;;;8.73;7.82;;;9.90;99.90;;;;;;5043810;28;20226;-77
2024/03/20 05:32:41;;;;;;;7.85;7.05;;;9.90;99.90;;;;;;5052917;28;20703;-78
2024/03/20 05:35:07;;;;;;;6.43;5.18;;;9.90;99.90;;;;;;5054207;28;20828;-78
2024/03/20 05:37:37;;;;;;;5.78;5.28;;;9.80;99.90;;;;;;5030434;28;20280;-79
2024/03/20 05:40:05;;;;;;;4.80;4.40;;;9.70;99.90;;;;;;5049088;28;20656;-77
2024/03/20 05:42:32;;;;;;;5.10;4.70;;;9.60;99.90;;;;;;5052704;28;20230;-77
2024/03/20 05:44:59;;;;;;;5.03;4.55;;;9.60;99.90;;;;;;5048979;28;20311;-77
2024/03/20 05:47:27;;;;;;;4.80;4.40;;;9.50;99.90;;;;;;5030199;28;20249;-81
2024/03/20 05:49:55;;;;;;;4.65;4.25;;;9.50;99.90;;;;;;5046268;28;20216;-77
2024/03/20 05:52:22;;;;;;;3.88;3.58;;;9.50;99.90;;;;;;5048837;28;20215;-80
2024/03/20 05:54:48;;;;;;;4.50;4.10;;;9.60;99.90;;;;;;5045583;28;20873;-79
2024/03/20 05:57:15;;;;;;;4.68;4.22;;;9.70;99.90;;;;;;5047123;28;20269;-77
2024/03/20 05:59:41;;;;;;;4.43;4.03;;;9.70;99.90;;;;;;5047581;28;20235;-79
2024/03/20 06:02:08;;;;;;;3.60;3.30;;;9.70;99.90;;;;;;5050121;28;20226;-79
2024/03/20 06:04:34;;;;;;;3.97;3.63;;;9.70;99.90;;;;;;5029327;28;20231;-81
2024/03/20 06:07:04;;;;;;;3.30;3.10;;;9.60;99.90;;;;;;5050555;28;20578;-79
2024/03/20 06:09:32;;;;;;;3.47;3.17;;;9.60;99.90;;;;;;5048854;28;20241;-81
2024/03/20 06:11:59;;;;;;;6.88;3.35;;;9.60;99.90;;;;;;5054014;28;20276;-76
2024/03/20 06:14:25;;;;;;;3.33;3.03;;;9.60;99.90;;;;;;5051448;28;20202;-78
2024/03/20 06:16:52;;;;;;;2.55;2.35;;;9.60;99.90;;;;;;5028301;28;20232;-80
2024/03/20 06:19:19;;;;;;;2.83;2.63;;;9.70;99.90;;;;;;5022450;28;20329;-78
2024/03/20 06:21:47;;;;;;;3.00;2.80;;;9.80;99.90;;;;;;5045722;28;20293;-80
2024/03/20 06:24:15;;;;;;;3.05;2.85;;;9.90;99.90;;;;;;5028690;28;20826;-77
2024/03/20 06:26:41;;;;;;;2.28;2.17;;;10.00;99.90;;;;;;5045108;28;20305;-80
2024/03/20 06:29:10;;;;;;;2.60;2.40;;;10.10;99.90;;;;;;5047754;28;20651;-75
2024/03/20 06:31:37;;;;;;;2.70;2.50;;;10.20;99.90;;;;;;5047192;28;20231;-76
2024/03/20 06:34:10;;;;;;;3.15;2.85;;;10.20;99.90;;;;;;5034882;28;20300;-81
2024/03/20 06:36:36;;;;;;;2.80;2.60;;;10.30;99.90;;;;;;5053861;28;20260;-78
2024/03/20 06:39:03;;;;;;;3.08;2.88;;;10.30;99.90;;;;;;5053059;28;20222;-75
2024/03/20 06:41:31;;;;;;;2.80;2.60;;;10.30;99.90;;;;;;5027838;28;20628;-76
2024/03/20 06:44:00;;;;;;;3.47;3.17;;;10.40;99.90;;;;;;5049728;28;20317;-74
2024/03/20 06:46:26;;;;;;;3.55;3.25;;;10.40;99.90;;;;;;5029383;28;20223;-78
2024/03/20 06:48:54;;;;;;;3.25;3.05;;;10.80;99.90;;;;;;5047965;28;20214;-77
2024/03/20 06:51:20;;;;;;;3.50;3.30;;;11.30;99.90;;;;;;5048159;28;20226;-76
2024/03/20 06:53:48;;;;;;;3.35;3.15;;;11.40;99.90;;;;;;5048497;28;20206;-77
2024/03/20 06:56:14;;;;;;;3.20;2.92;;;11.40;99.90;;;;;;5043522;28;20246;-79
2024/03/20 06:58:43;;;;;;;2.67;2.47;;;11.30;99.90;;;;;;5047340;28;20221;-75
2024/03/20 07:01:09;;;;;;;3.67;2.65;;;11.20;99.90;;;;;;5047937;28;20214;-75
2024/03/20 07:03:37;;;;;;;2.50;2.30;;;11.10;99.90;;;;;;5046031;28;20222;-75
2024/03/20 07:06:04;;;;;;;2.63;2.40;;;11.10;99.90;;;;;;5031752;28;20733;-75
2024/03/20 07:11:48;;;;;;;2.75;2.55;;;11.10;99.90;;;;;;5078730;27;20575;-80
2024/03/20 07:14:14;;;;;;;3.00;2.80;;;11.00;99.90;;;;;;5081546;27;20960;-84
2024/03/20 07:16:41;;;;;;;3.97;2.60;;;11.00;99.90;;;;;;5075733;27;20217;-78
2024/03/20 07:19:07;;;;;;;2.80;2.60;;;11.00;99.90;;;;;;5091227;28;20220;-76
2024/03/20 07:21:35;;;;;;;3.13;2.58;;;11.10;99.90;;;;;;5099728;27;20831;-79
2024/03/20 07:24:02;;;;;;;2.72;2.53;;;11.20;99.90;;;;;;5079618;28;20193;-82
2024/03/20 07:26:29;;;;;;;2.95;2.75;;;11.40;99.90;;;;;;5094120;27;20217;-81
2024/03/20 07:28:56;;;;;;;3.53;2.80;;;11.60;99.90;;;;;;5102401;28;20225;-76
2024/03/20 07:31:24;;;;;;;2.72;2.53;;;11.90;99.90;;;;;;5095245;27;20316;-79
2024/03/20 07:33:50;;;;;;;3.28;3.00;;;12.30;99.90;;;;;;5077667;28;20221;-78
2024/03/20 07:36:17;;;;;;;2.65;2.45;;;12.60;99.90;;;;;;5089614;27;20282;-77
2024/03/20 07:38:43;;;;;;;2.75;2.55;;;13.00;99.90;;;;;;5103276;28;20932;-80
2024/03/20 07:41:10;;;;;;;2.90;2.50;;;13.40;99.90;;;;;;5102811;27;20258;-84
2024/03/20 07:43:39;;;;;;;2.60;2.30;;;13.70;99.90;;;;;;5085865;28;20210;-83
2024/03/20 07:46:08;;;;;;;2.80;2.60;;;14.00;99.90;;;;;;5085991;28;20276;-82
2024/03/20 07:48:35;;;;;;;2.47;2.28;;;14.30;99.90;;;;;;5104610;27;20220;-81
2024/03/20 07:51:02;;;;;;;2.60;2.40;;;14.60;99.90;;;;;;5098248;27;20249;-79
2024/03/20 07:53:27;;;;;;;2.25;2.15;;;14.90;99.90;;;;;;5083119;28;20251;-79
2024/03/20 07:55:54;;;;;;;3.75;2.63;;;15.00;99.90;;;;;;5084026;28;20225;-76
2024/03/20 07:58:20;;;;;;;2.50;2.30;;;15.20;99.90;;;;;;5099330;28;20229;-76
2024/03/20 08:00:47;;;;;;;2.63;2.30;;;15.50;99.90;;;;;;5105132;27;20224;-87
2024/03/20 08:03:15;;;;;;;2.95;2.67;;;15.70;99.90;;;;;;5076290;28;20308;-76
2024/03/20 08:05:42;;;;;;;2.75;2.38;;;15.90;99.90;;;;;;5083033;28;20241;-77
2024/03/20 08:08:08;;;;;;;2.53;2.30;;;16.10;99.90;;;;;;5081283;27;20263;-82
2024/03/20 08:10:35;;;;;;;2.03;1.92;;;16.20;99.90;;;;;;5074409;28;20257;-80
2024/03/20 08:13:01;;;;;;;2.58;2.38;;;16.30;99.90;;;;;;5082848;28;20261;-79
2024/03/20 08:15:27;;;;;;;3.15;2.50;;;16.40;99.90;;;;;;5080559;28;20242;-79
2024/03/20 08:17:54;;;;;;;3.80;2.58;;;16.40;99.90;;;;;;5104107;27;20270;-83
2024/03/20 08:20:23;;;;;;;2.13;2.03;;;16.40;99.90;;;;;;5102807;27;20217;-77
2024/03/20 08:22:49;;;;;;;3.25;2.05;;;16.30;99.90;;;;;;5088930;28;20317;-79
2024/03/20 08:25:16;;;;;;;2.30;2.20;;;16.40;99.90;;;;;;5089850;28;20296;-78
2024/03/20 08:27:42;;;;;;;2.78;2.28;;;16.60;99.90;;;;;;5088441;28;20244;-81
2024/03/20 08:30:13;;;;;;;2.35;2.13;;;16.70;99.90;;;;;;5078862;28;20250;-79
2024/03/20 08:32:39;;;;;;;2.20;2.10;;;16.80;99.90;;;;;;5079484;28;20217;-84
2024/03/20 08:35:07;;;;;;;6.97;2.40;;;17.00;99.90;;;;;;5079648;28;20213;-81
2024/03/20 08:37:35;;;;;;;2.25;1.95;;;17.40;99.90;;;;;;5082932;28;20237;-79
2024/03/20 08:40:03;;;;;;;2.20;1.90;;;17.60;99.90;;;;;;5083834;28;20236;-84
2024/03/20 08:42:30;;;;;;;2.33;2.00;;;17.70;99.90;;;;;;5073919;28;20781;-77
2024/03/20 08:44:57;;;;;;;2.35;2.15;;;17.70;99.90;;;;;;5072111;28;20193;-75
2024/03/20 08:47:23;;;;;;;2.83;2.17;;;17.80;99.90;;;;;;5074469;28;20245;-77
2024/03/20 08:49:50;;;;;;;2.13;1.90;;;17.90;99.90;;;;;;5078599;28;20313;-78
2024/03/20 08:52:16;;;;;;;2.28;1.98;;;18.00;99.90;;;;;;5077402;28;20221;-75
2024/03/20 08:54:45;;;;;;;2.10;1.85;;;17.90;99.90;;;;;;5076655;28;20230;-77
2024/03/20 08:57:12;;;;;;;2.20;2.10;;;17.90;99.90;;;;;;5070937;28;20221;-75
2024/03/20 08:59:39;;;;;;;3.33;1.77;;;17.90;99.90;;;;;;5081110;28;20769;-82
2024/03/20 09:02:05;;;;;;;2.42;2.20;;;17.80;99.90;;;;;;5063020;28;20214;-80
2024/03/20 09:04:32;;;;;;;3.63;2.10;;;17.70;99.90;;;;;;5053356;28;20329;-79
2024/03/20 09:06:58;;;;;;;2.20;2.00;;;17.70;99.90;;;;;;5055115;28;20232;-76
2024/03/20 09:09:26;;;;;;;3.22;2.00;;;17.80;99.90;;;;;;5058537;28;20883;-76
2024/03/20 09:11:53;;;;;;;2.53;1.92;;;18.10;99.90;;;;;;5065197;28;20734;-79
2024/03/20 09:14:20;;;;;;;2.63;2.42;;;18.10;99.90;;;;;;5076270;28;20738;-77
2024/03/20 09:16:49;;;;;;;2.30;2.10;;;18.20;99.90;;;;;;5054793;28;20214;-80
2024/03/20 09:19:17;;;;;;;2.30;2.03;;;18.10;99.90;;;;;;5061209;28;20232;-78
2024/03/20 09:21:43;;;;;;;1.98;1.88;;;18.20;99.90;;;;;;5055081;28;20232;-78
2024/03/20 09:24:14;;;;;;;1.90;1.80;;;18.30;99.90;;;;;;5058752;28;20665;-79
2024/03/20 09:26:40;;;;;;;3.85;2.30;;;18.60;99.90;;;;;;5060664;28;20241;-80
2024/03/20 09:29:09;;;;;;;2.03;1.92;;;18.80;99.90;;;;;;5057430;28;20385;-81
2024/03/20 09:31:35;;;;;;;2.30;2.10;;;19.00;99.90;;;;;;5059603;28;20311;-79
2024/03/20 09:34:02;;;;;;;3.47;2.50;;;19.00;99.90;;;;;;5069820;28;20221;-77
2024/03/20 09:36:28;;;;;;;2.58;2.33;;;18.90;99.90;;;;;;5064366;28;20273;-76
2024/03/20 09:38:56;;;;;;;2.50;2.30;;;19.00;99.90;;;;;;5058240;28;20241;-79
2024/03/20 09:41:23;;;;;;;3.10;2.63;;;18.90;99.90;;;;;;5064650;28;20275;-80
2024/03/20 09:43:52;;;;;;;3.95;2.47;;;19.00;99.90;;;;;;5064413;28;20263;-78
2024/03/20 09:46:21;;;;;;;2.70;2.50;;;19.10;99.90;;;;;;5047482;28;20222;-76
2024/03/20 09:48:49;;;;;;;2.88;2.67;;;19.10;99.90;;;;;;5050067;28;20236;-77
2024/03/20 09:51:17;;;;;;;3.10;2.80;;;19.00;99.90;;;;;;5059764;28;20229;-76
2024/03/20 09:53:44;;;;;;;3.75;2.60;;;18.70;99.90;;;;;;5055724;28;20213;-79
2024/03/20 09:56:10;;;;;;;3.05;2.55;;;18.80;99.90;;;;;;5066833;28;20233;-76
2024/03/20 09:58:38;;;;;;;3.33;2.78;;;19.30;99.90;;;;;;5051336;28;20275;-77
2024/03/20 10:01:09;;;;;;;3.20;2.90;;;19.40;99.90;;;;;;5057746;28;20223;-77
2024/03/20 10:03:39;;;;;;;3.30;2.97;;;19.40;99.90;;;;;;5064984;28;20300;-76
2024/03/20 10:06:05;;;;;;;2.65;2.45;;;19.60;99.90;;;;;;5078546;28;20309;-78
2024/03/20 10:08:33;;;;;;;2.85;2.65;;;19.50;99.90;;;;;;5078512;28;20209;-75
2024/03/20 10:10:59;;;;;;;3.30;2.97;;;19.40;99.90;;;;;;5073158;28;20579;-75
2024/03/20 10:13:26;;;;;;;3.40;3.03;;;19.50;99.90;;;;;;5078645;28;20209;-77
2024/03/20 10:16:04;;;;;;;3.08;2.78;;;19.30;99.90;;;;;;5084540;28;20241;-77
2024/03/20 10:18:31;;;;;;;3.15;2.85;;;19.40;99.90;;;;;;5088349;28;20209;-75
2024/03/20 10:20:58;;;;;;;5.63;3.85;;;19.20;99.90;;;;;;5078697;28;20237;-76
2024/03/20 10:23:26;;;;;;;4.82;3.45;;;19.40;99.90;;;;;;5075985;28;20622;-76
2024/03/20 10:25:52;;;;;;;3.72;3.40;;;19.50;99.90;;;;;;5079726;28;20232;-78
2024/03/20 10:28:23;;;;;;;3.22;2.92;;;19.70;99.90;;;;;;5080019;28;20226;-76
2024/03/20 10:30:51;;;;;;;4.68;3.70;;;19.80;99.90;;;;;;5081339;28;20306;-75
2024/03/20 10:33:19;;;;;;;4.85;3.65;;;19.60;99.90;;;;;;5084384;28;20616;-75
2024/03/20 10:35:50;;;;;;;3.58;3.28;;;19.50;99.90;;;;;;5083077;28;20228;-79
2024/03/20 10:38:19;;;;;;;5.28;4.78;;;19.70;99.90;;;;;;5052687;28;20340;-76
2024/03/20 10:40:49;;;;;;;5.03;4.63;;;19.60;99.90;;;;;;5062272;28;20614;-76
2024/03/20 10:43:20;;;;;;;5.80;5.25;;;19.50;99.90;;;;;;5078204;28;20216;-77
2024/03/20 10:45:47;;;;;;;7.68;5.57;;;19.40;99.90;;;;;;5080798;28;20305;-78
2024/03/20 10:48:16;;;;;;;5.53;5.03;;;19.40;99.90;;;;;;5078477;28;20220;-76
2024/03/20 10:50:46;;;;;;;6.97;5.50;;;19.50;99.90;;;;;;5078194;28;20308;-76
2024/03/20 10:53:14;;;;;;;8.68;7.80;;;19.60;99.90;;;;;;5055357;28;20221;-79
2024/03/20 10:55:42;;;;;;;8.00;6.90;;;19.50;99.90;;;;;;5062362;28;20233;-77
2024/03/20 10:58:15;;;;;;;7.93;7.15;;;19.60;99.90;;;;;;5080341;28;20212;-77
2024/03/20 11:00:43;;;;;;;8.57;7.72;;;19.90;99.90;;;;;;5083586;28;20730;-76
2024/03/20 11:03:38;;;;;;;8.90;8.00;;;19.80;99.90;;;;;;5083244;28;20216;-76
2024/03/20 11:06:41;;;;;;;11.68;10.15;;;19.70;99.90;;;;;;5083216;28;20247;-75
2024/03/20 11:09:21;;;;;;;9.63;8.27;;;19.50;99.90;;;;;;5081435;28;20223;-75
2024/03/20 11:11:53;;;;;;;8.35;7.45;;;19.30;99.90;;;;;;5082817;28;20320;-76
2024/03/20 11:14:30;;;;;;;7.50;6.53;;;19.00;99.90;;;;;;5083902;28;20275;-79
2024/03/20 11:17:04;;;;;;;7.03;6.40;;;19.20;99.90;;;;;;5080210;28;20635;-76
2024/03/20 11:19:30;;;;;;;7.95;6.93;;;19.20;99.90;;;;;;5078014;28;20672;-76
2024/03/20 11:21:59;;;;;;;8.80;7.25;;;18.90;99.90;;;;;;5079852;28;20698;-77
2024/03/20 11:24:27;;;;;;;11.93;8.70;;;18.90;99.90;;;;;;5077457;28;20215;-76
2024/03/20 11:26:57;;;;;;;9.77;8.77;;;19.20;99.90;;;;;;5080429;28;20301;-76
2024/03/20 11:29:23;;;;;;;8.27;7.47;;;19.20;99.90;;;;;;5088218;28;20219;-77
2024/03/20 11:31:54;;;;;;;9.85;8.85;;;19.10;99.90;;;;;;5082678;28;20213;-76
2024/03/20 11:34:19;;;;;;;10.55;9.10;;;19.10;99.90;;;;;;5081774;28;20981;-77
2024/03/20 11:36:47;;;;;;;11.63;9.45;;;19.20;99.90;;;;;;5082091;28;20223;-76
2024/03/20 11:39:13;;;;;;;12.32;10.20;;;19.00;99.90;;;;;;5074110;28;20302;-76
2024/03/20 11:41:40;;;;;;;9.88;8.90;;;19.00;99.90;;;;;;5076961;28;20699;-76
2024/03/20 11:44:10;;;;;;;11.30;10.20;;;19.20;99.90;;;;;;5080359;28;20868;-75
2024/03/20 11:46:38;;;;;;;11.40;9.80;;;19.10;99.90;;;;;;5079121;28;20221;-77
2024/03/20 11:49:06;;;;;;;10.60;9.48;;;19.10;99.90;;;;;;5080866;28;20221;-78
2024/03/20 11:51:33;;;;;;;10.38;9.30;;;19.10;99.90;;;;;;5080785;28;20214;-82
2024/03/20 11:54:02;;;;;;;11.82;10.43;;;19.00;99.90;;;;;;5082131;28;20193;-77
2024/03/20 11:56:29;;;;;;;12.00;10.25;;;18.90;99.90;;;;;;5080620;28;20216;-77
2024/03/20 11:58:55;;;;;;;9.68;8.77;;;18.70;99.90;;;;;;5087120;28;20258;-77
2024/03/20 12:01:24;;;;;;;9.38;8.48;;;19.10;99.90;;;;;;5081739;28;20213;-76
2024/03/20 12:03:52;;;;;;;9.93;8.93;;;19.30;99.90;;;;;;5084446;28;20244;-75
2024/03/20 12:06:22;;;;;;;10.75;9.52;;;19.50;99.90;;;;;;5084528;28;20244;-77
2024/03/20 12:08:49;;;;;;;11.77;10.35;;;19.30;99.90;;;;;;5083213;28;20299;-77
2024/03/20 12:11:24;;;;;;;11.00;9.60;;;19.00;99.90;;;;;;5076939;28;20218;-79
2024/03/20 12:13:53;;;;;;;12.93;11.23;;;19.00;99.90;;;;;;5082189;28;20220;-76
2024/03/20 12:16:24;;;;;;;11.88;10.68;;;18.90;99.90;;;;;;5083399;28;20229;-81
2024/03/20 12:18:52;;;;;;;14.43;12.93;;;18.90;99.90;;;;;;5085525;28;20278;-79
2024/03/20 12:21:20;;;;;;;14.85;11.88;;;18.70;99.90;;;;;;5078496;28;20261;-81
2024/03/20 12:23:49;;;;;;;11.68;10.30;;;18.70;99.90;;;;;;5077849;28;20204;-83
2024/03/20 12:26:17;;;;;;;13.68;11.93;;;18.80;99.90;;;;;;5075905;28;20908;-79
2024/03/20 12:28:46;;;;;;;12.13;10.02;;;18.90;99.90;;;;;;5079326;28;20703;-77
2024/03/20 12:31:15;;;;;;;12.45;10.38;;;19.20;99.90;;;;;;5080726;28;20305;-77
2024/03/20 12:33:46;;;;;;;10.77;9.60;;;19.50;99.90;;;;;;5086164;28;20210;-76
2024/03/20 12:36:12;;;;;;;9.73;8.73;;;19.60;99.90;;;;;;5079467;28;20228;-78
2024/03/20 12:38:40;;;;;;;11.35;9.65;;;19.70;99.90;;;;;;5081272;28;20240;-77
2024/03/20 12:41:08;;;;;;;10.23;9.20;;;19.80;99.90;;;;;;5080338;28;20225;-75
2024/03/20 12:43:35;;;;;;;8.13;7.20;;;19.60;99.90;;;;;;5080603;28;20206;-76
2024/03/20 12:46:01;;;;;;;11.60;9.38;;;19.60;99.90;;;;;;5092492;28;20305;-77
2024/03/20 12:48:28;;;;;;;9.73;8.75;;;19.50;99.90;;;;;;5082160;28;20288;-77
2024/03/20 12:50:55;;;;;;;11.30;9.45;;;19.20;99.90;;;;;;5085901;28;20291;-80